createdAt,value
2022-12-11T00:02:22.002Z,12.33
2022-12-11T00:06:24.164Z,11.53
2022-12-11T00:10:26.168Z,13.27
2022-12-11T00:14:29.156Z,13.00
2022-12-11T00:18:38.498Z,11.97
2022-12-11T00:22:40.406Z,12.50
2022-12-11T00:26:42.266Z,13.10
2022-12-11T00:30:44.104Z,13.47
2022-12-11T00:34:45.897Z,11.90
2022-12-11T00:38:48.894Z,12.83
2022-12-11T00:42:53.799Z,12.87
2022-12-11T00:46:55.699Z,12.20
2022-12-11T00:50:57.675Z,12.07
2022-12-11T00:54:59.498Z,12.80
2022-12-11T00:59:01.490Z,13.10
2022-12-11T01:03:03.553Z,12.50
2022-12-11T01:07:05.531Z,13.30
2022-12-11T01:11:10.580Z,12.87
2022-12-11T01:15:12.622Z,12.90
2022-12-11T01:19:14.915Z,11.17
2022-12-11T01:23:16.815Z,12.17
2022-12-11T01:27:18.606Z,12.07
2022-12-11T01:31:22.225Z,12.07
2022-12-11T01:35:24.192Z,12.57
2022-12-11T01:39:26.093Z,11.53
2022-12-11T01:43:27.958Z,11.60
2022-12-11T01:47:29.864Z,11.43
2022-12-11T01:51:33.459Z,12.43
2022-12-11T01:55:35.366Z,12.17
2022-12-11T01:59:40.042Z,13.20
2022-12-11T02:03:42.620Z,12.47
2022-12-11T02:07:51.109Z,15.20
2022-12-11T02:12:12.034Z,15.47
2022-12-11T02:16:37.913Z,15.90
2022-12-11T02:20:52.043Z,15.83
2022-12-11T02:25:07.722Z,15.60
2022-12-11T02:29:18.719Z,15.20
2022-12-11T02:33:34.322Z,15.10
2022-12-11T02:37:36.506Z,14.73
2022-12-11T02:41:38.882Z,15.43
2022-12-11T02:45:41.256Z,14.10
2022-12-11T02:49:44.595Z,14.87
2022-12-11T02:53:46.497Z,14.63
2022-12-11T02:58:02.467Z,13.20
2022-12-11T03:02:19.515Z,14.57
2022-12-11T03:06:30.428Z,13.43
2022-12-11T03:10:32.229Z,14.40
2022-12-11T03:14:40.413Z,14.27
2022-12-11T03:19:05.434Z,15.23
2022-12-11T03:23:16.589Z,13.50
2022-12-11T03:27:30.330Z,13.73
2022-12-11T03:31:39.035Z,12.60
2022-12-11T03:35:45.826Z,12.10
2022-12-11T03:39:54.859Z,13.30
2022-12-11T03:43:58.518Z,13.17
2022-12-11T03:48:00.568Z,12.70
2022-12-11T03:52:02.733Z,13.00
2022-12-11T03:56:05.723Z,12.67
2022-12-11T04:00:10.808Z,12.47
2022-12-11T04:04:13.082Z,12.23
2022-12-11T04:08:15.610Z,12.03
2022-12-11T04:12:17.435Z,12.87
2022-12-11T04:16:19.312Z,12.53
2022-12-11T04:20:39.943Z,13.27
2022-12-11T04:24:41.837Z,14.20
2022-12-11T04:28:44.367Z,13.20
2022-12-11T04:32:46.256Z,13.37
2022-12-11T04:36:48.170Z,13.67
2022-12-11T04:40:50.008Z,12.67
2022-12-11T04:44:51.808Z,12.73
2022-12-11T04:48:57.252Z,12.27
2022-12-11T04:52:59.663Z,11.50
2022-12-11T04:57:01.552Z,11.87
2022-12-11T05:01:18.006Z,12.67
2022-12-11T05:05:19.830Z,8.43
2022-12-11T05:09:21.709Z,8.73
2022-12-11T05:13:23.519Z,9.60
2022-12-11T05:17:25.432Z,9.40
2022-12-11T05:21:33.235Z,10.57
2022-12-11T05:25:36.714Z,10.50
2022-12-11T05:29:38.536Z,9.70
2022-12-11T05:33:40.407Z,9.30
2022-12-11T05:37:42.164Z,8.80
2022-12-11T05:41:43.931Z,8.70
2022-12-11T05:45:45.754Z,8.23
2022-12-11T05:49:47.923Z,7.57
2022-12-11T05:53:51.095Z,11.10
2022-12-11T05:57:52.965Z,11.20
2022-12-11T06:01:54.887Z,10.80
2022-12-11T06:05:56.785Z,10.03
2022-12-11T06:09:58.533Z,9.33
2022-12-11T06:14:02.159Z,9.73
2022-12-11T06:18:04.133Z,9.37
2022-12-11T06:22:05.940Z,9.77
2022-12-11T06:26:17.397Z,9.40
2022-12-11T06:30:19.393Z,8.77
2022-12-11T06:34:23.534Z,8.93
2022-12-11T06:38:25.411Z,8.70
2022-12-11T06:42:27.226Z,9.07
2022-12-11T06:46:29.393Z,9.07
2022-12-11T06:50:31.251Z,9.53
2022-12-11T06:54:33.221Z,7.80
2022-12-11T06:58:35.716Z,9.77
2022-12-11T07:02:37.660Z,9.00
2022-12-11T07:06:39.902Z,8.60
2022-12-11T07:10:44.337Z,9.10
2022-12-11T07:14:46.264Z,8.87
2022-12-11T07:18:50.010Z,8.77
2022-12-11T07:22:51.900Z,8.47
2022-12-11T07:26:53.848Z,9.00
2022-12-11T07:30:55.753Z,6.80
2022-12-11T07:34:58.068Z,7.43
2022-12-11T07:39:02.760Z,6.07
2022-12-11T07:43:04.760Z,6.90
2022-12-11T07:47:06.895Z,6.73
2022-12-11T07:51:12.562Z,6.47
2022-12-11T07:55:17.724Z,6.37
2022-12-11T07:59:19.811Z,6.90
2022-12-11T08:03:22.088Z,6.10
2022-12-11T08:07:26.825Z,6.47
2022-12-11T08:11:30.319Z,6.57
2022-12-11T08:15:37.159Z,5.60
2022-12-11T08:19:39.680Z,5.93
2022-12-11T08:23:46.750Z,6.53
2022-12-11T08:27:59.339Z,6.33
2022-12-11T08:32:08.970Z,6.93
2022-12-11T08:36:21.572Z,6.93
2022-12-11T08:40:23.778Z,6.93
2022-12-11T08:44:26.952Z,6.00
2022-12-11T08:48:38.922Z,6.37
2022-12-11T08:52:44.324Z,7.10
2022-12-11T08:56:46.722Z,7.80
2022-12-11T09:00:59.823Z,6.87
2022-12-11T09:05:01.867Z,6.90
2022-12-11T09:09:04.004Z,6.97
2022-12-11T09:13:05.873Z,6.80
2022-12-11T09:17:08.864Z,6.90
2022-12-11T09:21:17.089Z,6.50
2022-12-11T09:25:18.965Z,7.23
2022-12-11T09:29:21.059Z,6.67
2022-12-11T09:33:23.849Z,6.47
2022-12-11T09:37:26.432Z,6.43
2022-12-11T09:42:00.671Z,6.67
2022-12-11T09:46:05.733Z,6.53
2022-12-11T09:50:11.466Z,5.90
2022-12-11T09:54:17.314Z,6.70
2022-12-11T09:58:38.596Z,6.43
2022-12-11T10:03:07.794Z,5.90
2022-12-11T10:07:30.600Z,6.27
2022-12-11T10:11:35.195Z,6.17
2022-12-11T10:15:51.257Z,6.60
2022-12-11T10:19:55.458Z,6.00
2022-12-11T10:24:00.614Z,7.40
2022-12-11T10:28:14.314Z,6.17
2022-12-11T10:32:24.770Z,6.60
2022-12-11T10:36:39.374Z,6.70
2022-12-11T10:41:03.331Z,6.60
2022-12-11T10:45:05.939Z,7.00
2022-12-11T10:49:26.844Z,6.73
2022-12-11T10:53:29.451Z,6.27
2022-12-11T10:57:40.311Z,6.43
2022-12-11T11:01:42.290Z,6.33
2022-12-11T11:05:49.204Z,6.17
2022-12-11T11:10:09.848Z,6.97
2022-12-11T11:14:15.562Z,7.60
2022-12-11T11:18:25.466Z,6.07
2022-12-11T11:22:27.759Z,6.17
2022-12-11T11:26:56.543Z,5.67
2022-12-11T11:31:05.938Z,5.93
2022-12-11T11:35:11.676Z,5.70
2022-12-11T11:39:37.633Z,5.77
2022-12-11T11:43:54.697Z,6.23
2022-12-11T11:48:28.672Z,5.67
2022-12-11T11:52:49.101Z,5.57
2022-12-11T11:56:52.057Z,5.47
2022-12-11T12:00:54.867Z,6.30
2022-12-11T12:04:56.840Z,6.00
2022-12-11T12:09:19.310Z,5.90
2022-12-11T12:14:29.152Z,7.27
2022-12-11T12:19:03.811Z,6.70
2022-12-11T12:23:45.218Z,7.27
2022-12-11T12:28:05.938Z,7.27
2022-12-11T12:32:36.928Z,7.30
2022-12-11T12:36:46.797Z,6.47
2022-12-11T12:41:19.521Z,7.23
2022-12-11T12:46:02.582Z,7.13
2022-12-11T12:50:05.068Z,6.50
2022-12-11T12:54:12.321Z,7.27
2022-12-11T12:58:42.335Z,7.30
2022-12-11T13:02:50.638Z,7.20
2022-12-11T13:06:52.475Z,6.87
2022-12-11T13:11:02.375Z,6.53
2022-12-11T13:15:04.818Z,6.40
2022-12-11T13:19:30.026Z,6.57
2022-12-11T13:23:37.289Z,7.53
2022-12-11T13:27:43.705Z,7.23
2022-12-11T13:31:45.831Z,6.50
2022-12-11T13:35:47.972Z,7.10
2022-12-11T13:39:50.165Z,7.53
2022-12-11T13:44:35.916Z,7.27
2022-12-11T13:48:48.455Z,6.33
2022-12-11T13:52:58.508Z,7.37
2022-12-11T13:57:15.236Z,6.77
2022-12-11T14:01:32.545Z,6.87
2022-12-11T14:05:34.594Z,6.47
2022-12-11T14:09:40.342Z,6.93
2022-12-11T14:13:42.271Z,6.00
2022-12-11T14:17:51.473Z,5.90
2022-12-11T14:22:06.880Z,6.73
2022-12-11T14:26:18.158Z,7.60
2022-12-11T14:30:32.541Z,7.57
2022-12-11T14:34:38.541Z,7.20
2022-12-11T14:38:58.164Z,9.60
2022-12-11T14:43:02.224Z,7.70
2022-12-11T14:47:14.088Z,6.97
2022-12-11T14:51:20.365Z,7.30
2022-12-11T14:55:27.717Z,8.23
2022-12-11T14:59:32.097Z,8.00
2022-12-11T15:03:43.263Z,8.00
2022-12-11T15:08:27.028Z,8.40
2022-12-11T15:12:29.009Z,8.50
2022-12-11T15:16:33.557Z,7.83
2022-12-11T15:20:35.549Z,10.13
2022-12-11T15:24:42.743Z,10.50
2022-12-11T15:28:44.631Z,10.57
2022-12-11T15:32:46.974Z,11.50
2022-12-11T15:36:48.811Z,10.70
2022-12-11T15:40:50.793Z,10.00
2022-12-11T15:44:53.806Z,10.67
2022-12-11T15:48:56.783Z,10.57
2022-12-11T15:52:58.657Z,11.07
2022-12-11T15:57:01.855Z,10.23
2022-12-11T16:01:06.443Z,10.80
2022-12-11T16:05:08.909Z,11.30
2022-12-11T16:09:10.971Z,11.03
2022-12-11T16:13:13.194Z,11.50
2022-12-11T16:17:15.326Z,10.80
2022-12-11T16:21:21.393Z,12.07
2022-12-11T16:25:25.059Z,11.23
2022-12-11T16:29:27.070Z,11.57
2022-12-11T16:33:29.000Z,11.37
2022-12-11T16:37:30.874Z,11.10
2022-12-11T16:41:32.739Z,11.27
2022-12-11T16:45:34.683Z,12.23
2022-12-11T16:49:36.608Z,11.00
2022-12-11T16:53:38.755Z,11.47
2022-12-11T16:57:40.812Z,9.97
2022-12-11T17:01:42.705Z,10.53
2022-12-11T17:05:45.088Z,10.87
2022-12-11T17:09:47.079Z,11.37
2022-12-11T17:13:53.988Z,10.63
2022-12-11T17:17:55.767Z,11.23
2022-12-11T17:21:58.962Z,10.80
2022-12-11T17:26:02.532Z,10.50
2022-12-11T17:30:05.275Z,11.40
2022-12-11T17:34:07.162Z,11.03
2022-12-11T17:38:09.101Z,11.90
2022-12-11T17:42:10.933Z,12.03
2022-12-11T17:46:13.179Z,11.43
2022-12-11T17:50:15.362Z,12.77
2022-12-11T17:54:17.458Z,11.37
2022-12-11T17:58:23.389Z,8.73
2022-12-11T18:02:25.780Z,8.53
2022-12-11T18:06:28.002Z,8.90
2022-12-11T18:10:30.088Z,9.00
2022-12-11T18:14:32.419Z,8.80
2022-12-11T18:18:37.813Z,8.90
2022-12-11T18:22:39.694Z,8.30
2022-12-11T18:26:45.815Z,8.73
2022-12-11T18:30:47.954Z,8.90
2022-12-11T18:34:49.909Z,9.73
2022-12-11T18:38:53.460Z,8.97
2022-12-11T18:42:58.049Z,9.23
2022-12-11T18:47:00.016Z,8.47
2022-12-11T18:51:08.618Z,8.07
2022-12-11T18:55:10.875Z,9.03
2022-12-11T18:59:16.385Z,8.63
2022-12-11T19:03:18.380Z,8.37
2022-12-11T19:07:20.297Z,8.93
2022-12-11T19:11:24.673Z,9.47
2022-12-11T19:15:27.621Z,8.30
2022-12-11T19:19:29.594Z,8.53
2022-12-11T19:23:32.803Z,8.23
2022-12-11T19:27:34.730Z,8.40
2022-12-11T19:31:39.402Z,8.63
2022-12-11T19:35:41.481Z,8.17
2022-12-11T19:39:43.469Z,9.00
2022-12-11T19:43:48.153Z,8.37
2022-12-11T19:47:50.109Z,8.37
2022-12-11T19:51:54.850Z,8.87
2022-12-11T19:56:00.918Z,8.13
2022-12-11T20:00:06.036Z,8.07
2022-12-11T20:04:12.886Z,8.80
2022-12-11T20:08:42.951Z,8.97
2022-12-11T20:12:37.698Z,9.17
2022-12-11T20:17:09.242Z,8.73
2022-12-11T20:21:02.832Z,9.40
2022-12-11T20:25:05.277Z,8.77
2022-12-11T20:29:08.378Z,9.17
2022-12-11T20:33:10.494Z,9.53
2022-12-11T20:37:12.675Z,9.30
2022-12-11T20:41:17.012Z,9.23
2022-12-11T20:45:19.261Z,9.07
2022-12-11T20:49:21.568Z,9.67
2022-12-11T20:53:23.463Z,9.73
2022-12-11T20:57:25.454Z,11.00
2022-12-11T21:01:30.028Z,10.63
2022-12-11T21:05:32.288Z,8.67
2022-12-11T21:09:34.416Z,12.10
2022-12-11T21:13:38.871Z,11.73
2022-12-11T21:17:40.844Z,11.40
2022-12-11T21:21:46.949Z,11.60
2022-12-11T21:25:51.859Z,11.70
2022-12-11T21:29:53.738Z,11.97
2022-12-11T21:34:20.672Z,12.80
2022-12-11T21:38:25.647Z,11.97
2022-12-11T21:42:27.919Z,12.03
2022-12-11T21:46:29.884Z,12.10
2022-12-11T21:50:31.982Z,11.90
2022-12-11T21:54:33.799Z,12.70
2022-12-11T21:58:36.640Z,12.27
2022-12-11T22:02:41.147Z,11.73
2022-12-11T22:06:43.743Z,12.63
2022-12-11T22:10:45.671Z,11.67
2022-12-11T22:14:47.832Z,9.00
2022-12-11T22:18:49.690Z,8.43
2022-12-11T22:22:51.492Z,8.83
2022-12-11T22:26:53.401Z,8.80
2022-12-11T22:30:55.304Z,8.20
2022-12-11T22:34:57.833Z,8.83
2022-12-11T22:39:00.368Z,9.20
2022-12-11T22:43:02.249Z,8.80
2022-12-11T22:47:04.092Z,9.47
2022-12-11T22:51:06.682Z,9.80
2022-12-11T22:55:08.992Z,10.07
2022-12-11T22:59:10.993Z,9.97
2022-12-11T23:03:12.955Z,8.77
2022-12-11T23:07:14.944Z,10.03
2022-12-11T23:11:34.818Z,9.53
2022-12-11T23:15:36.811Z,9.70
2022-12-11T23:19:38.585Z,9.33
2022-12-11T23:23:40.679Z,10.73
2022-12-11T23:27:42.503Z,9.30
2022-12-11T23:31:46.467Z,10.73
2022-12-11T23:35:48.258Z,9.23
2022-12-11T23:39:50.335Z,9.63
2022-12-11T23:43:52.291Z,9.43
2022-12-11T23:47:54.115Z,9.20
2022-12-11T23:52:05.238Z,8.87
2022-12-11T23:56:12.451Z,8.47
